Terminal Aerodrome Forecast
Issued by NWS

Home | Current Version | Previous Version | Text Only | Print | Product List | Glossary On
Versions: 1 2 3 4 5 6 7 8 9 10 11 12 13 14 15 16 17 18 19 20 21 22 23 24 25 26 27 28
000
FTUS43 KDTX 080535
TAFPTK
TAF
KPTK 080535Z 0806/0906 23007KT P6SM SCT035 BKN090
      TEMPO 0806/0808 OVC035
     FM081200 23007KT P6SM BKN018 OVC028
     FM081800 27007KT P6SM SCT028 BKN045
     FM090100 29006KT P6SM -SHSN BKN035=

USA.gov is the U.S. government's official web portal to all federal, state and local government web resources and services.